createdAt,value
2023-05-23T00:00:24.480Z,11.73
2023-05-23T00:00:57.474Z,11.50
2023-05-23T00:01:31.318Z,12.15
2023-05-23T00:02:08.039Z,10.50
2023-05-23T00:02:40.115Z,11.15
2023-05-23T00:03:14.187Z,11.93
2023-05-23T00:03:47.290Z,11.30
2023-05-23T00:04:20.201Z,11.27
2023-05-23T00:04:58.249Z,11.57
2023-05-23T00:05:30.218Z,11.25
2023-05-23T00:06:02.584Z,11.20
2023-05-23T00:06:35.993Z,11.70
2023-05-23T00:07:09.366Z,11.60
2023-05-23T00:07:41.237Z,11.82
2023-05-23T00:08:13.057Z,10.82
2023-05-23T00:08:45.823Z,11.13
2023-05-23T00:09:19.024Z,12.13
2023-05-23T00:09:51.842Z,10.82
2023-05-23T00:10:23.732Z,11.35
2023-05-23T00:10:55.567Z,12.00
2023-05-23T00:11:29.148Z,12.35
2023-05-23T00:12:01.039Z,11.60
2023-05-23T00:12:33.548Z,11.85
2023-05-23T00:13:09.309Z,10.43
2023-05-23T00:13:42.208Z,11.57
2023-05-23T00:14:14.990Z,11.60
2023-05-23T00:14:47.827Z,11.07
2023-05-23T00:15:19.814Z,11.23
2023-05-23T00:15:52.234Z,10.18
2023-05-23T00:16:25.745Z,10.55
2023-05-23T00:16:57.625Z,10.68
2023-05-23T00:17:29.728Z,11.82
2023-05-23T00:18:01.614Z,12.00
2023-05-23T00:18:35.674Z,11.02
2023-05-23T00:19:08.193Z,11.65
2023-05-23T00:19:40.035Z,10.77
2023-05-23T00:20:13.501Z,10.85
2023-05-23T00:20:46.787Z,10.70
2023-05-23T00:21:18.664Z,11.00
2023-05-23T00:21:53.716Z,10.73
2023-05-23T00:22:25.687Z,10.40
2023-05-23T00:22:58.595Z,10.65
2023-05-23T00:23:33.863Z,11.02
2023-05-23T00:24:06.034Z,10.70
2023-05-23T00:24:39.229Z,10.05
2023-05-23T00:25:12.390Z,10.40
2023-05-23T00:25:48.237Z,10.15
2023-05-23T00:26:20.072Z,11.98
2023-05-23T00:26:52.879Z,11.65
2023-05-23T00:27:24.732Z,10.63
2023-05-23T00:27:56.568Z,11.05
2023-05-23T00:28:29.347Z,10.45
2023-05-23T00:29:01.461Z,11.05
2023-05-23T00:29:33.259Z,9.95
2023-05-23T00:30:07.053Z,9.77
2023-05-23T00:30:38.866Z,10.13
2023-05-23T00:31:10.799Z,11.85
2023-05-23T00:31:46.255Z,10.88
2023-05-23T00:32:18.101Z,10.75
2023-05-23T00:32:50.042Z,10.65
2023-05-23T00:33:23.654Z,10.13
2023-05-23T00:33:56.052Z,10.48
2023-05-23T00:34:28.777Z,11.48
2023-05-23T00:35:01.626Z,10.70
2023-05-23T00:35:33.567Z,11.13
2023-05-23T00:36:06.012Z,10.07
2023-05-23T00:36:38.801Z,11.68
2023-05-23T00:37:11.669Z,11.60
2023-05-23T00:37:43.790Z,11.90
2023-05-23T00:38:17.088Z,11.27
2023-05-23T00:38:49.373Z,10.80
2023-05-23T00:39:21.753Z,11.93
2023-05-23T00:39:56.056Z,10.18
2023-05-23T00:40:28.132Z,10.98
2023-05-23T00:41:00.150Z,11.82
2023-05-23T00:41:33.174Z,10.63
2023-05-23T00:42:06.536Z,11.05
2023-05-23T00:42:39.349Z,10.63
2023-05-23T00:43:11.210Z,11.35
2023-05-23T00:43:43.086Z,10.55
2023-05-23T00:44:15.487Z,11.77
2023-05-23T00:44:48.614Z,11.05
2023-05-23T00:45:20.692Z,11.82
2023-05-23T00:45:52.552Z,12.00
2023-05-23T00:46:24.463Z,11.05
2023-05-23T00:46:59.262Z,11.75
2023-05-23T00:47:31.789Z,11.27
2023-05-23T00:48:04.678Z,11.60
2023-05-23T00:48:38.537Z,10.48
2023-05-23T00:49:10.503Z,10.55
2023-05-23T00:49:42.820Z,11.13
2023-05-23T00:50:17.022Z,12.30
2023-05-23T00:50:49.009Z,11.65
2023-05-23T00:51:21.387Z,11.60
2023-05-23T00:51:54.234Z,12.48
2023-05-23T00:52:26.227Z,11.07
2023-05-23T00:53:00.563Z,10.98
2023-05-23T00:53:34.522Z,11.60
2023-05-23T00:54:07.071Z,11.52
2023-05-23T00:54:39.770Z,10.63
2023-05-23T00:55:13.122Z,11.55
2023-05-23T00:55:46.123Z,10.43
2023-05-23T00:56:19.212Z,10.23
2023-05-23T00:56:51.288Z,12.20
2023-05-23T00:57:23.234Z,10.90
2023-05-23T00:57:56.982Z,11.38
2023-05-23T00:58:28.886Z,10.52
2023-05-23T00:59:01.503Z,11.48
2023-05-23T00:59:36.947Z,11.05
2023-05-23T01:00:10.028Z,11.82
2023-05-23T01:00:42.725Z,10.77
2023-05-23T01:01:17.236Z,10.55
2023-05-23T01:01:51.124Z,10.88
2023-05-23T01:02:23.250Z,10.88
2023-05-23T01:02:56.445Z,11.88
2023-05-23T01:03:28.807Z,11.85
2023-05-23T01:04:02.827Z,11.52
2023-05-23T01:04:37.061Z,11.00
2023-05-23T01:05:10.116Z,11.25
2023-05-23T01:05:42.215Z,12.20
2023-05-23T01:06:15.468Z,11.23
2023-05-23T01:06:49.046Z,9.90
2023-05-23T01:07:21.333Z,12.10
2023-05-23T01:07:55.056Z,10.65
2023-05-23T01:08:29.283Z,11.82
2023-05-23T01:09:02.769Z,10.85
2023-05-23T01:09:35.603Z,10.93
2023-05-23T01:10:08.802Z,10.52
2023-05-23T01:10:42.091Z,11.80
2023-05-23T01:11:24.043Z,10.52
2023-05-23T01:12:08.764Z,10.77
2023-05-23T01:12:51.803Z,11.82
2023-05-23T01:13:31.501Z,11.82
2023-05-23T01:14:10.835Z,9.60
2023-05-23T01:14:52.548Z,10.80
2023-05-23T01:15:29.063Z,12.00
2023-05-23T01:16:06.293Z,11.15
2023-05-23T01:16:48.751Z,10.25
2023-05-23T01:17:27.063Z,10.35
2023-05-23T01:18:04.026Z,11.18
2023-05-23T01:18:41.357Z,10.80
2023-05-23T01:19:28.066Z,12.27
2023-05-23T01:20:05.590Z,10.60
2023-05-23T01:20:45.058Z,11.68
2023-05-23T01:21:18.745Z,10.20
2023-05-23T01:21:55.372Z,11.85
2023-05-23T01:22:45.275Z,11.35
2023-05-23T01:23:59.375Z,11.85
2023-05-23T01:24:37.682Z,11.00
2023-05-23T01:25:23.540Z,12.20
2023-05-23T01:26:08.520Z,11.18
2023-05-23T01:26:54.791Z,11.82
2023-05-23T01:27:42.633Z,12.02
2023-05-23T01:28:19.790Z,12.02
2023-05-23T01:28:56.196Z,12.00
2023-05-23T01:29:32.653Z,11.63
2023-05-23T01:30:08.529Z,11.18
2023-05-23T01:30:42.783Z,11.60
2023-05-23T01:31:16.935Z,11.40
2023-05-23T01:31:53.295Z,11.38
2023-05-23T01:32:27.245Z,12.00
2023-05-23T01:33:00.565Z,11.50
2023-05-23T01:33:34.575Z,10.43
2023-05-23T01:34:07.864Z,10.75
2023-05-23T01:34:41.240Z,12.13
2023-05-23T01:35:15.187Z,11.48
2023-05-23T01:35:47.342Z,11.15
2023-05-23T01:36:19.572Z,10.98
2023-05-23T01:36:56.325Z,11.77
2023-05-23T01:37:29.751Z,11.52
2023-05-23T01:38:01.690Z,11.75
2023-05-23T01:38:34.525Z,11.45
2023-05-23T01:39:06.474Z,11.60
2023-05-23T01:39:38.576Z,11.07
2023-05-23T01:40:12.310Z,11.45
2023-05-23T01:40:44.173Z,11.90
2023-05-23T01:41:15.989Z,12.00
2023-05-23T01:41:50.478Z,11.48
2023-05-23T01:42:22.577Z,12.02
2023-05-23T01:42:57.217Z,12.25
2023-05-23T01:43:30.319Z,11.45
2023-05-23T01:44:03.063Z,12.05
2023-05-23T01:44:35.942Z,11.85
2023-05-23T01:45:10.500Z,11.10
2023-05-23T01:45:43.333Z,11.95
2023-05-23T01:46:16.751Z,11.52
2023-05-23T01:46:50.060Z,11.10
2023-05-23T01:47:22.379Z,11.07
2023-05-23T01:47:55.831Z,11.10
2023-05-23T01:48:29.846Z,12.27
2023-05-23T01:49:03.945Z,11.05
2023-05-23T01:49:37.059Z,11.65
2023-05-23T01:50:11.942Z,10.95
2023-05-23T01:50:45.386Z,11.40
2023-05-23T01:51:17.245Z,11.25
2023-05-23T01:51:50.505Z,11.57
2023-05-23T01:52:23.263Z,11.32
2023-05-23T01:52:56.004Z,12.00
2023-05-23T01:53:30.182Z,11.73
2023-05-23T01:54:02.071Z,11.23
2023-05-23T01:54:35.250Z,11.68
2023-05-23T01:55:11.911Z,12.20
2023-05-23T01:55:44.849Z,13.68
2023-05-23T01:56:17.054Z,11.63
2023-05-23T01:56:50.595Z,11.80
2023-05-23T01:57:22.889Z,11.40
2023-05-23T01:57:57.449Z,12.13
2023-05-23T01:58:30.514Z,11.23
2023-05-23T01:59:03.594Z,12.43
2023-05-23T01:59:35.646Z,12.25
2023-05-23T02:00:10.907Z,11.98
2023-05-23T02:00:43.798Z,12.05
2023-05-23T02:01:15.945Z,12.70
2023-05-23T02:01:47.903Z,12.75
2023-05-23T02:02:20.882Z,12.60
2023-05-23T02:02:52.959Z,12.57
2023-05-23T02:03:25.027Z,11.40
2023-05-23T02:03:57.960Z,12.40
2023-05-23T02:04:30.520Z,12.38
2023-05-23T02:05:02.423Z,11.68
2023-05-23T02:05:35.306Z,11.93
2023-05-23T02:06:07.365Z,11.50
2023-05-23T02:06:39.257Z,11.68
2023-05-23T02:07:12.174Z,12.18
2023-05-23T02:07:43.996Z,12.10
2023-05-23T02:08:15.914Z,12.70
2023-05-23T02:08:47.793Z,11.90
2023-05-23T02:09:21.046Z,11.15
2023-05-23T02:09:52.927Z,11.85
2023-05-23T02:10:24.824Z,12.40
2023-05-23T02:10:57.658Z,12.05
2023-05-23T02:11:29.466Z,12.50
2023-05-23T02:12:01.385Z,13.00
2023-05-23T02:12:33.227Z,12.90
2023-05-23T02:13:07.391Z,11.60
2023-05-23T02:13:39.229Z,12.02
2023-05-23T02:14:11.472Z,12.20
2023-05-23T02:14:43.337Z,12.05
2023-05-23T02:15:17.311Z,13.45
2023-05-23T02:15:49.148Z,13.38
2023-05-23T02:16:21.494Z,13.48
2023-05-23T02:16:54.773Z,12.35
2023-05-23T02:17:26.737Z,12.52
2023-05-23T02:17:58.714Z,12.63
2023-05-23T02:18:31.494Z,12.27
2023-05-23T02:19:04.320Z,12.23
2023-05-23T02:19:36.425Z,12.20
2023-05-23T02:20:11.009Z,12.13
2023-05-23T02:20:42.797Z,12.27
2023-05-23T02:21:14.663Z,11.38
2023-05-23T02:21:47.471Z,12.80
2023-05-23T02:22:23.949Z,12.80
2023-05-23T02:22:56.176Z,12.38
2023-05-23T02:23:28.972Z,12.70
2023-05-23T02:24:00.815Z,12.25
2023-05-23T02:24:32.615Z,13.02
2023-05-23T02:25:06.346Z,12.48
2023-05-23T02:25:38.283Z,12.85
2023-05-23T02:26:10.249Z,12.20
2023-05-23T02:26:43.024Z,12.25
2023-05-23T02:27:14.873Z,12.50
2023-05-23T02:27:46.749Z,12.82
2023-05-23T02:28:20.959Z,11.65
2023-05-23T02:28:52.802Z,12.93
2023-05-23T02:29:24.649Z,13.68
2023-05-23T02:29:57.444Z,13.15
2023-05-23T02:30:29.288Z,11.25
2023-05-23T02:31:01.836Z,13.20
2023-05-23T02:31:35.234Z,12.65
2023-05-23T02:32:07.674Z,11.88
2023-05-23T02:32:39.592Z,13.02
2023-05-23T02:33:12.545Z,12.27
2023-05-23T02:33:44.458Z,13.45
2023-05-23T02:34:16.292Z,13.40
2023-05-23T02:34:50.249Z,12.27
2023-05-23T02:35:22.425Z,14.13
2023-05-23T02:35:55.339Z,13.52
2023-05-23T02:36:28.150Z,13.20
2023-05-23T02:37:00.072Z,13.50
2023-05-23T02:37:31.890Z,11.80
2023-05-23T02:38:04.691Z,12.90
2023-05-23T02:38:36.568Z,12.55
2023-05-23T02:39:08.473Z,14.13
2023-05-23T02:39:41.300Z,12.82
2023-05-23T02:40:13.211Z,13.30
2023-05-23T02:40:45.357Z,13.50
2023-05-23T02:41:18.221Z,12.05
2023-05-23T02:41:50.168Z,13.80
2023-05-23T02:42:21.998Z,12.20
2023-05-23T02:42:57.162Z,13.20
2023-05-23T02:43:30.458Z,13.07
2023-05-23T02:44:02.319Z,13.68
2023-05-23T02:44:35.120Z,12.88
2023-05-23T02:45:08.304Z,13.93
2023-05-23T02:45:40.318Z,13.07
2023-05-23T02:46:13.662Z,12.73
2023-05-23T02:46:45.822Z,13.55
2023-05-23T02:47:17.759Z,11.50
2023-05-23T02:47:50.699Z,13.18
2023-05-23T02:48:22.622Z,13.45
2023-05-23T02:48:54.543Z,13.75
2023-05-23T02:49:27.399Z,13.13
2023-05-23T02:49:59.268Z,13.48
2023-05-23T02:50:31.411Z,14.40
2023-05-23T02:51:04.397Z,14.18
2023-05-23T02:51:36.235Z,13.57
2023-05-23T02:52:08.105Z,13.35
2023-05-23T02:52:42.270Z,12.60
2023-05-23T02:53:14.163Z,13.68
2023-05-23T02:53:46.118Z,13.50
2023-05-23T02:54:17.973Z,13.65
2023-05-23T02:54:50.739Z,12.85
2023-05-23T02:55:22.713Z,14.20
2023-05-23T02:55:54.632Z,14.35
2023-05-23T02:56:27.786Z,15.05
2023-05-23T02:56:59.597Z,13.85
2023-05-23T02:57:31.472Z,14.35
2023-05-23T02:58:05.790Z,13.20
2023-05-23T02:58:40.134Z,13.98
2023-05-23T02:59:12.252Z,14.07
2023-05-23T02:59:44.089Z,12.43
2023-05-23T03:00:17.624Z,15.65
2023-05-23T03:00:49.485Z,14.90
2023-05-23T03:01:21.447Z,14.45
2023-05-23T03:01:53.512Z,13.38
2023-05-23T03:02:26.957Z,14.60
2023-05-23T03:02:58.933Z,13.35
2023-05-23T03:03:31.541Z,13.30
2023-05-23T03:04:04.693Z,14.43
2023-05-23T03:04:38.117Z,14.35
2023-05-23T03:05:10.244Z,13.77
2023-05-23T03:05:43.220Z,13.70
2023-05-23T03:06:16.864Z,13.55
2023-05-23T03:06:48.728Z,14.38
2023-05-23T03:07:28.238Z,13.40
2023-05-23T03:08:00.566Z,13.90
2023-05-23T03:08:33.531Z,14.40
2023-05-23T03:09:05.516Z,14.60
2023-05-23T03:09:37.348Z,13.68
2023-05-23T03:10:11.012Z,14.90
2023-05-23T03:10:43.060Z,15.00
2023-05-23T03:11:14.860Z,12.95
2023-05-23T03:11:47.960Z,14.20
2023-05-23T03:12:19.802Z,13.98
2023-05-23T03:12:51.629Z,13.90
2023-05-23T03:13:24.421Z,13.85
2023-05-23T03:13:57.569Z,13.02
2023-05-23T03:14:29.435Z,14.35
2023-05-23T03:15:02.239Z,12.57
2023-05-23T03:15:34.108Z,14.57
2023-05-23T03:16:06.451Z,15.77
2023-05-23T03:16:38.344Z,13.70
2023-05-23T03:17:14.458Z,14.20
2023-05-23T03:17:46.279Z,14.00
2023-05-23T03:18:18.133Z,14.57
2023-05-23T03:18:50.976Z,14.40
2023-05-23T03:19:22.864Z,14.07
2023-05-23T03:19:54.729Z,14.15
2023-05-23T03:20:27.580Z,15.35
2023-05-23T03:20:59.407Z,15.00
2023-05-23T03:21:32.265Z,14.38
2023-05-23T03:22:05.619Z,14.00
2023-05-23T03:22:37.610Z,14.73
2023-05-23T03:23:09.445Z,15.65
2023-05-23T03:23:42.239Z,14.63
2023-05-23T03:24:14.132Z,15.20
2023-05-23T03:24:46.009Z,14.43
2023-05-23T03:25:19.018Z,14.75
2023-05-23T03:25:51.473Z,15.40
2023-05-23T03:26:23.816Z,14.05
2023-05-23T03:26:56.648Z,14.95
2023-05-23T03:27:28.515Z,14.63
2023-05-23T03:28:00.440Z,15.45
2023-05-23T03:28:33.266Z,14.82
2023-05-23T03:29:07.120Z,14.30
2023-05-23T03:29:39.065Z,16.45
2023-05-23T03:30:12.758Z,14.88
2023-05-23T03:30:44.562Z,15.57
2023-05-23T03:31:17.403Z,16.05
2023-05-23T03:31:49.295Z,15.43
2023-05-23T03:32:21.151Z,14.57
2023-05-23T03:32:54.193Z,16.08
2023-05-23T03:33:26.049Z,15.57
2023-05-23T03:33:57.858Z,14.82
2023-05-23T03:34:32.989Z,15.23
2023-05-23T03:35:05.459Z,16.38
2023-05-23T03:35:37.304Z,15.80
2023-05-23T03:36:10.118Z,14.43
2023-05-23T03:36:41.951Z,16.25
2023-05-23T03:37:13.737Z,16.63
2023-05-23T03:37:46.502Z,15.38
2023-05-23T03:38:18.399Z,16.08
2023-05-23T03:38:50.237Z,14.95
2023-05-23T03:39:23.275Z,16.25
2023-05-23T03:39:55.105Z,16.80
2023-05-23T03:40:26.939Z,17.23
2023-05-23T03:40:59.704Z,17.20
2023-05-23T03:41:31.511Z,16.60
2023-05-23T03:42:03.667Z,16.05
2023-05-23T03:42:37.306Z,16.13
2023-05-23T03:43:09.177Z,16.80
2023-05-23T03:43:41.094Z,16.23
2023-05-23T03:44:15.568Z,17.45
2023-05-23T03:44:47.398Z,16.10
2023-05-23T03:45:19.330Z,16.67
2023-05-23T03:45:52.238Z,16.73
2023-05-23T03:46:24.218Z,15.73
2023-05-23T03:46:56.086Z,18.15
2023-05-23T03:47:28.899Z,16.77
2023-05-23T03:48:00.951Z,17.90
2023-05-23T03:48:32.796Z,17.55
2023-05-23T03:49:05.565Z,16.90
2023-05-23T03:49:37.412Z,17.48
2023-05-23T03:50:10.311Z,16.75
2023-05-23T03:50:43.096Z,16.38
2023-05-23T03:51:15.012Z,16.83
2023-05-23T03:51:46.816Z,15.73
2023-05-23T03:52:19.612Z,16.85
2023-05-23T03:52:51.491Z,18.15
2023-05-23T03:53:23.298Z,16.75
2023-05-23T03:53:55.138Z,18.42
2023-05-23T03:54:27.949Z,18.05
2023-05-23T03:54:59.765Z,17.52
2023-05-23T03:55:31.972Z,17.08
2023-05-23T03:56:04.812Z,16.55
2023-05-23T03:56:36.689Z,17.65
2023-05-23T03:57:08.525Z,17.30
2023-05-23T03:57:41.361Z,17.30
2023-05-23T03:58:13.292Z,15.98
2023-05-23T03:58:46.373Z,17.65
2023-05-23T03:59:19.853Z,18.05
2023-05-23T03:59:51.926Z,18.40
2023-05-23T04:00:24.790Z,17.08
2023-05-23T04:00:56.798Z,16.67
2023-05-23T04:01:29.614Z,17.52
2023-05-23T04:02:01.562Z,16.80
2023-05-23T04:02:33.521Z,17.10
2023-05-23T04:03:06.765Z,19.88
2023-05-23T04:03:38.856Z,17.60
2023-05-23T04:04:10.854Z,15.80
2023-05-23T04:04:43.905Z,15.95
2023-05-23T04:05:16.115Z,18.15
2023-05-23T04:05:48.042Z,18.38
2023-05-23T04:06:22.718Z,17.40
2023-05-23T04:06:54.673Z,17.95
2023-05-23T04:07:26.520Z,17.10
2023-05-23T04:08:01.125Z,17.77
2023-05-23T04:08:35.302Z,18.20
2023-05-23T04:09:07.139Z,16.42
2023-05-23T04:09:38.976Z,17.77
2023-05-23T04:10:12.213Z,16.83
2023-05-23T04:10:44.082Z,19.33
2023-05-23T04:11:15.918Z,18.63
2023-05-23T04:11:48.933Z,18.27
2023-05-23T04:12:22.071Z,17.73
2023-05-23T04:12:53.860Z,18.38
2023-05-23T04:13:27.035Z,16.70
2023-05-23T04:13:58.857Z,16.88
2023-05-23T04:14:33.543Z,18.20
2023-05-23T04:15:07.312Z,17.85
2023-05-23T04:15:39.771Z,17.83
2023-05-23T04:16:11.773Z,17.15
2023-05-23T04:16:44.758Z,18.15
2023-05-23T04:17:16.685Z,21.17
2023-05-23T04:17:48.498Z,18.05
2023-05-23T04:18:22.037Z,17.60
2023-05-23T04:18:54.272Z,18.95
2023-05-23T04:19:26.642Z,17.73
2023-05-23T04:19:59.121Z,17.98
2023-05-23T04:20:32.051Z,17.58
2023-05-23T04:21:04.072Z,18.63
2023-05-23T04:21:36.002Z,17.88
2023-05-23T04:22:08.774Z,18.55
2023-05-23T04:22:41.183Z,18.17
2023-05-23T04:23:13.002Z,18.40
2023-05-23T04:23:46.029Z,19.20
2023-05-23T04:24:17.918Z,17.63
2023-05-23T04:24:49.769Z,17.00
2023-05-23T04:25:22.665Z,18.00
2023-05-23T04:25:54.490Z,18.15
2023-05-23T04:26:26.316Z,19.08
2023-05-23T04:26:59.293Z,17.95
2023-05-23T04:27:31.462Z,18.27
2023-05-23T04:28:03.329Z,16.60
2023-05-23T04:28:37.594Z,18.40
2023-05-23T04:29:12.021Z,17.75
2023-05-23T04:29:46.736Z,18.23
2023-05-23T04:30:19.568Z,17.60
2023-05-23T04:30:51.436Z,19.52
2023-05-23T04:31:24.551Z,17.70
2023-05-23T04:31:56.423Z,17.85
2023-05-23T04:32:28.382Z,19.45
2023-05-23T04:33:01.248Z,18.50
2023-05-23T04:33:34.113Z,17.65
2023-05-23T04:34:07.949Z,18.73
2023-05-23T04:34:41.171Z,18.40
2023-05-23T04:35:14.702Z,19.00
2023-05-23T04:35:46.683Z,17.88
2023-05-23T04:36:18.673Z,19.35
2023-05-23T04:36:53.815Z,16.77
2023-05-23T04:37:26.287Z,18.55
2023-05-23T04:37:58.310Z,17.63
2023-05-23T04:38:32.030Z,17.38
2023-05-23T04:39:04.146Z,17.73
2023-05-23T04:39:36.114Z,18.17
2023-05-23T04:40:09.998Z,19.25
2023-05-23T04:40:42.057Z,18.70
2023-05-23T04:41:16.303Z,18.65
2023-05-23T04:41:49.969Z,17.35
2023-05-23T04:42:24.413Z,19.95
2023-05-23T04:42:57.154Z,17.73
2023-05-23T04:43:30.004Z,17.50
2023-05-23T04:44:01.868Z,17.17
2023-05-23T04:44:34.069Z,17.13
2023-05-23T04:45:09.963Z,18.88
2023-05-23T04:45:42.276Z,18.27
2023-05-23T04:46:14.341Z,18.20
2023-05-23T04:46:47.180Z,17.95
2023-05-23T04:47:19.160Z,18.50
2023-05-23T04:47:51.031Z,18.75
2023-05-23T04:48:23.867Z,18.33
2023-05-23T04:48:56.401Z,18.45
2023-05-23T04:49:29.322Z,18.73
2023-05-23T04:50:02.020Z,19.02
2023-05-23T04:50:35.882Z,18.10
2023-05-23T04:51:08.447Z,19.08
2023-05-23T04:51:40.299Z,18.80
2023-05-23T04:52:12.150Z,20.00
2023-05-23T04:52:45.347Z,18.67
2023-05-23T04:53:17.253Z,19.15
2023-05-23T04:53:49.669Z,20.67
2023-05-23T04:54:22.672Z,18.98
2023-05-23T04:54:55.987Z,20.55
2023-05-23T04:55:27.978Z,18.45
2023-05-23T04:56:00.992Z,20.60
2023-05-23T04:56:32.898Z,17.30
2023-05-23T04:57:06.169Z,19.77
2023-05-23T04:57:38.053Z,19.27
2023-05-23T04:58:09.920Z,19.88
2023-05-23T04:58:44.308Z,18.92
2023-05-23T04:59:16.240Z,17.98
2023-05-23T04:59:48.121Z,20.48
2023-05-23T05:00:22.436Z,19.00
2023-05-23T05:00:54.338Z,19.30
2023-05-23T05:01:26.357Z,18.70
2023-05-23T05:01:59.247Z,18.98
2023-05-23T05:02:35.150Z,17.13
2023-05-23T05:03:09.710Z,20.70
2023-05-23T05:03:41.692Z,19.15
2023-05-23T05:04:13.594Z,19.25
2023-05-23T05:04:47.287Z,18.98
2023-05-23T05:05:19.358Z,18.77
2023-05-23T05:05:51.163Z,19.08
2023-05-23T05:06:24.694Z,20.08
2023-05-23T05:06:57.272Z,18.08
2023-05-23T05:07:29.352Z,20.95
2023-05-23T05:08:02.188Z,19.50
2023-05-23T05:08:34.006Z,19.20
2023-05-23T05:09:05.823Z,17.83
2023-05-23T05:09:38.684Z,19.83
2023-05-23T05:10:16.716Z,18.67
2023-05-23T05:10:48.575Z,18.38
2023-05-23T05:11:22.017Z,19.42
2023-05-23T05:11:53.844Z,20.42
2023-05-23T05:12:25.994Z,19.58
2023-05-23T05:12:58.794Z,19.50
2023-05-23T05:13:30.617Z,18.38
2023-05-23T05:14:02.427Z,18.75
2023-05-23T05:14:35.347Z,19.40
2023-05-23T05:15:08.463Z,20.23
2023-05-23T05:15:42.488Z,19.33
2023-05-23T05:16:15.580Z,19.98
2023-05-23T05:16:48.618Z,20.05
2023-05-23T05:17:21.491Z,19.67
2023-05-23T05:17:53.697Z,18.23
2023-05-23T05:18:26.938Z,21.10
2023-05-23T05:18:59.761Z,19.02
2023-05-23T05:19:31.944Z,19.98
2023-05-23T05:20:08.366Z,19.92
2023-05-23T05:20:41.723Z,20.55
2023-05-23T05:21:13.701Z,20.75
2023-05-23T05:21:45.717Z,20.02
2023-05-23T05:22:18.511Z,20.02
2023-05-23T05:22:55.787Z,19.60
2023-05-23T05:23:29.348Z,19.30
2023-05-23T05:24:01.613Z,19.90
2023-05-23T05:24:33.449Z,19.10
2023-05-23T05:25:07.305Z,19.00
2023-05-23T05:25:41.164Z,19.08
2023-05-23T05:26:14.359Z,19.73
2023-05-23T05:26:46.341Z,19.52
2023-05-23T05:27:18.264Z,19.90
2023-05-23T05:27:52.420Z,20.25
2023-05-23T05:28:24.537Z,20.40
2023-05-23T05:28:56.969Z,19.30
2023-05-23T05:29:29.783Z,19.33
2023-05-23T05:30:04.898Z,18.55
2023-05-23T05:30:37.428Z,18.30
2023-05-23T05:31:15.176Z,19.45
2023-05-23T05:31:47.257Z,18.20
2023-05-23T05:32:19.098Z,19.00
2023-05-23T05:32:51.975Z,20.58
2023-05-23T05:33:24.816Z,19.58
2023-05-23T05:33:57.650Z,19.75
2023-05-23T05:34:29.760Z,18.92
2023-05-23T05:35:01.905Z,19.05
2023-05-23T05:35:35.698Z,19.95
2023-05-23T05:36:07.885Z,19.73
2023-05-23T05:36:45.716Z,20.40
2023-05-23T05:37:18.507Z,20.55
2023-05-23T05:37:50.462Z,20.05
2023-05-23T05:38:22.481Z,20.05
2023-05-23T05:38:55.294Z,20.40
2023-05-23T05:39:27.568Z,20.10
2023-05-23T05:40:05.924Z,18.80
2023-05-23T05:40:38.931Z,20.25
2023-05-23T05:41:10.956Z,20.02
2023-05-23T05:41:43.777Z,20.73
2023-05-23T05:42:15.630Z,18.58
2023-05-23T05:42:47.509Z,19.65
2023-05-23T05:43:20.328Z,19.42
2023-05-23T05:43:52.222Z,19.50
2023-05-23T05:44:24.078Z,18.65
2023-05-23T05:44:56.886Z,18.80
2023-05-23T05:45:28.713Z,18.75
2023-05-23T05:46:00.613Z,19.08
2023-05-23T05:46:34.845Z,19.88
2023-05-23T05:47:06.833Z,18.73
2023-05-23T05:47:39.780Z,19.80
2023-05-23T05:48:12.009Z,21.63
2023-05-23T05:48:43.922Z,20.63
2023-05-23T05:49:16.811Z,18.98
2023-05-23T05:49:49.009Z,20.75
2023-05-23T05:50:20.912Z,18.80
2023-05-23T05:50:53.759Z,19.65
2023-05-23T05:51:25.648Z,19.52
2023-05-23T05:51:57.467Z,19.30
2023-05-23T05:52:30.234Z,18.67
2023-05-23T05:53:02.114Z,19.33
2023-05-23T05:53:34.172Z,19.67
2023-05-23T05:54:06.987Z,19.45
2023-05-23T05:54:38.925Z,18.77
2023-05-23T05:55:11.440Z,19.77
2023-05-23T05:55:44.303Z,18.42
2023-05-23T05:56:16.571Z,20.05
2023-05-23T05:56:48.579Z,19.50
2023-05-23T05:57:21.366Z,19.75
2023-05-23T05:57:53.255Z,19.45
2023-05-23T05:58:25.129Z,19.15
2023-05-23T05:58:58.018Z,19.48
2023-05-23T05:59:31.910Z,16.55
2023-05-23T06:00:11.849Z,18.45
2023-05-23T06:00:47.554Z,20.70
2023-05-23T06:01:19.457Z,19.27
2023-05-23T06:01:52.792Z,21.45
2023-05-23T06:02:26.382Z,18.48
2023-05-23T06:02:58.399Z,19.02
2023-05-23T06:03:30.408Z,20.13
2023-05-23T06:04:03.522Z,19.17
2023-05-23T06:04:35.719Z,19.60
2023-05-23T06:05:09.287Z,20.52
2023-05-23T06:05:42.289Z,19.80
2023-05-23T06:06:14.266Z,18.40
2023-05-23T06:06:47.125Z,18.73
2023-05-23T06:07:19.002Z,19.85
2023-05-23T06:07:51.211Z,18.40
2023-05-23T06:08:24.302Z,18.65
2023-05-23T06:08:56.189Z,19.48
2023-05-23T06:09:28.002Z,20.38
2023-05-23T06:10:00.882Z,19.65
2023-05-23T06:10:32.864Z,19.15
2023-05-23T06:11:05.915Z,17.73
2023-05-23T06:11:41.142Z,19.63
2023-05-23T06:12:13.278Z,19.85
2023-05-23T06:12:46.565Z,20.00
2023-05-23T06:13:18.455Z,19.23
2023-05-23T06:13:50.281Z,18.55
2023-05-23T06:14:29.140Z,19.73
2023-05-23T06:15:01.859Z,19.40
2023-05-23T06:15:33.702Z,19.67
2023-05-23T06:16:07.386Z,19.70
2023-05-23T06:16:39.382Z,19.63
2023-05-23T06:17:15.032Z,19.67
2023-05-23T06:17:48.639Z,19.50
2023-05-23T06:18:20.564Z,19.55
2023-05-23T06:18:52.453Z,21.13
2023-05-23T06:19:25.349Z,19.52
2023-05-23T06:19:57.325Z,19.40
2023-05-23T06:20:29.331Z,20.25
2023-05-23T06:21:02.242Z,20.17
2023-05-23T06:21:34.202Z,19.63
2023-05-23T06:22:06.041Z,19.35
2023-05-23T06:22:38.896Z,18.90
2023-05-23T06:23:10.748Z,20.17
2023-05-23T06:23:43.672Z,19.45
2023-05-23T06:24:15.559Z,18.70
2023-05-23T06:24:47.405Z,19.77
2023-05-23T06:25:20.190Z,18.40
2023-05-23T06:25:52.148Z,19.88
2023-05-23T06:26:23.987Z,18.48
2023-05-23T06:26:56.838Z,21.40
2023-05-23T06:27:28.848Z,19.15
2023-05-23T06:28:01.173Z,20.42
2023-05-23T06:28:33.975Z,19.70
2023-05-23T06:29:05.822Z,19.80
2023-05-23T06:29:37.680Z,18.67
2023-05-23T06:30:11.400Z,19.48
2023-05-23T06:30:43.504Z,20.30
2023-05-23T06:31:15.645Z,20.15
2023-05-23T06:31:48.460Z,19.65
2023-05-23T06:32:21.772Z,19.40
2023-05-23T06:32:53.662Z,19.85
2023-05-23T06:33:26.496Z,20.13
2023-05-23T06:33:58.387Z,21.42
2023-05-23T06:34:30.284Z,17.95
2023-05-23T06:35:03.119Z,20.10
2023-05-23T06:35:34.977Z,18.90
2023-05-23T06:36:08.095Z,19.65
2023-05-23T06:36:40.306Z,19.20
2023-05-23T06:37:12.186Z,19.92
2023-05-23T06:37:45.814Z,19.67
2023-05-23T06:38:18.030Z,20.50
2023-05-23T06:38:50.925Z,20.33
2023-05-23T06:39:22.822Z,20.65
2023-05-23T06:39:55.688Z,18.55
2023-05-23T06:40:27.693Z,18.75
2023-05-23T06:41:00.088Z,20.42
2023-05-23T06:41:32.929Z,19.33
2023-05-23T06:42:05.368Z,19.83
2023-05-23T06:42:38.172Z,19.25
2023-05-23T06:43:10.100Z,19.33
2023-05-23T06:43:41.999Z,19.85
2023-05-23T06:44:14.900Z,21.42
2023-05-23T06:44:46.883Z,21.30
2023-05-23T06:45:18.912Z,20.15
2023-05-23T06:45:52.959Z,22.27
2023-05-23T06:46:43.137Z,21.35
2023-05-23T06:47:16.010Z,23.00
2023-05-23T06:47:49.247Z,21.60
2023-05-23T06:48:21.284Z,22.13
2023-05-23T06:49:06.555Z,20.23
2023-05-23T06:49:45.700Z,23.17
2023-05-23T06:50:19.873Z,22.35
2023-05-23T06:50:51.818Z,20.73
2023-05-23T06:51:23.720Z,20.90
2023-05-23T06:51:56.547Z,22.17
2023-05-23T06:52:28.450Z,21.35
2023-05-23T06:53:00.422Z,21.98
2023-05-23T06:53:33.457Z,20.42
2023-05-23T06:54:05.927Z,20.55
2023-05-23T06:54:37.751Z,22.02
2023-05-23T06:55:14.364Z,21.52
2023-05-23T06:55:46.461Z,21.55
2023-05-23T06:56:19.300Z,22.67
2023-05-23T06:56:51.213Z,21.67
2023-05-23T06:57:23.997Z,21.35
2023-05-23T06:57:56.009Z,22.00
2023-05-23T06:58:27.917Z,21.23
2023-05-23T06:59:00.756Z,21.33
2023-05-23T06:59:32.627Z,21.20
2023-05-23T07:00:05.846Z,20.60
2023-05-23T07:00:38.849Z,22.30
2023-05-23T07:01:10.870Z,22.50
2023-05-23T07:01:42.875Z,22.95
2023-05-23T07:02:15.801Z,21.63
2023-05-23T07:02:49.461Z,20.67
2023-05-23T07:03:21.422Z,20.63
2023-05-23T07:03:54.367Z,21.42
2023-05-23T07:04:26.937Z,22.45
2023-05-23T07:04:58.909Z,21.17
2023-05-23T07:05:33.318Z,21.88
2023-05-23T07:06:06.047Z,24.35
2023-05-23T07:06:39.827Z,23.85